createdAt,value
2022-09-25T00:00:59.324Z,17.70
2022-09-25T00:03:27.827Z,19.20
2022-09-25T00:06:05.494Z,19.30
2022-09-25T00:08:33.392Z,17.40
2022-09-25T00:11:00.431Z,13.00
2022-09-25T00:13:27.506Z,12.50
2022-09-25T00:15:57.965Z,14.40
2022-09-25T00:18:44.251Z,16.00
2022-09-25T00:21:14.236Z,14.20
2022-09-25T00:23:43.599Z,14.70
2022-09-25T00:26:11.550Z,13.60
2022-09-25T00:28:39.882Z,13.30
2022-09-25T00:31:08.268Z,11.90
2022-09-25T00:33:36.284Z,16.50
2022-09-25T00:36:05.427Z,21.20
2022-09-25T00:38:33.154Z,21.50
2022-09-25T00:41:00.784Z,24.70
2022-09-25T00:43:46.070Z,23.20
2022-09-25T00:46:24.254Z,22.50
2022-09-25T00:48:56.953Z,25.20
2022-09-25T00:51:29.688Z,23.30
2022-09-25T00:54:03.198Z,22.20
2022-09-25T00:56:36.600Z,22.10
2022-09-25T00:59:03.519Z,22.10
2022-09-25T01:01:31.102Z,21.70
2022-09-25T01:03:58.076Z,20.80
2022-09-25T01:06:26.444Z,20.60
2022-09-25T01:08:54.389Z,21.10
2022-09-25T01:11:21.206Z,21.70
2022-09-25T01:13:48.069Z,21.80
2022-09-25T01:16:26.356Z,25.70
2022-09-25T01:19:15.498Z,29.30
2022-09-25T01:21:49.296Z,32.60
2022-09-25T01:24:42.917Z,43.10
2022-09-25T01:27:19.130Z,49.30
2022-09-25T01:29:59.269Z,53.20
2022-09-25T01:32:33.356Z,55.90
2022-09-25T01:35:07.710Z,56.70
2022-09-25T01:37:40.909Z,55.40
2022-09-25T01:40:23.447Z,54.40
2022-09-25T01:43:06.579Z,53.90
2022-09-25T01:45:55.432Z,54.40
2022-09-25T01:48:26.893Z,55.40
2022-09-25T01:51:43.719Z,60.00
2022-09-25T01:54:15.849Z,62.30
2022-09-25T01:56:53.919Z,66.30
2022-09-25T01:59:45.339Z,71.30
2022-09-25T02:02:15.831Z,78.00
2022-09-25T02:05:09.178Z,81.40
2022-09-25T02:07:41.278Z,80.20
2022-09-25T02:10:23.419Z,81.50
2022-09-25T02:12:54.945Z,81.60
2022-09-25T02:15:28.645Z,82.10
2022-09-25T02:18:23.650Z,82.10
2022-09-25T02:21:29.405Z,81.00
2022-09-25T02:24:27.076Z,80.70
2022-09-25T02:26:53.817Z,80.90
2022-09-25T02:29:21.045Z,79.60
2022-09-25T02:31:57.955Z,78.60
2022-09-25T02:34:24.706Z,82.30
2022-09-25T02:36:51.958Z,80.70
2022-09-25T02:39:22.814Z,83.00
2022-09-25T02:42:27.238Z,82.30
2022-09-25T02:45:12.188Z,80.70
2022-09-25T02:48:09.113Z,80.40
2022-09-25T02:51:02.870Z,82.70
2022-09-25T02:53:41.589Z,87.30
2022-09-25T02:56:19.100Z,90.90
2022-09-25T02:58:56.233Z,91.60
2022-09-25T03:01:26.397Z,94.30
2022-09-25T03:03:56.607Z,95.30
2022-09-25T03:06:25.142Z,95.50
2022-09-25T03:08:56.767Z,96.00
2022-09-25T03:11:26.882Z,96.80
2022-09-25T03:14:02.514Z,97.90
2022-09-25T03:16:40.574Z,98.30
2022-09-25T03:19:08.044Z,99.10
2022-09-25T03:21:34.746Z,99.40
2022-09-25T03:24:01.739Z,98.70
2022-09-25T03:26:28.881Z,99.60
2022-09-25T03:28:56.179Z,99.90
2022-09-25T03:31:23.267Z,99.90
2022-09-25T03:33:50.237Z,99.90
2022-09-25T03:36:20.643Z,99.90
2022-09-25T03:38:49.386Z,99.90
2022-09-25T03:41:20.213Z,99.90
2022-09-25T03:43:51.450Z,99.90
2022-09-25T03:46:27.124Z,99.90
2022-09-25T03:48:56.161Z,99.90
2022-09-25T03:51:24.331Z,99.90
2022-09-25T03:53:51.500Z,99.90
2022-09-25T03:56:20.821Z,99.90
2022-09-25T03:58:48.494Z,99.90
2022-09-25T04:01:16.372Z,99.90
2022-09-25T04:03:47.505Z,99.90
2022-09-25T04:06:18.480Z,99.90
2022-09-25T04:08:46.546Z,99.90
2022-09-25T04:11:16.566Z,99.90
2022-09-25T04:13:44.902Z,99.90
2022-09-25T04:16:13.453Z,99.90
2022-09-25T04:18:41.851Z,99.90
2022-09-25T04:21:10.935Z,99.90
2022-09-25T04:23:38.263Z,99.90
2022-09-25T04:26:05.599Z,99.90
2022-09-25T04:28:33.118Z,99.90
2022-09-25T04:31:00.587Z,99.90
2022-09-25T04:33:45.859Z,99.90
2022-09-25T04:36:13.038Z,99.90
2022-09-25T04:38:39.733Z,99.90
2022-09-25T04:41:08.151Z,99.90
2022-09-25T04:43:35.519Z,99.90
2022-09-25T04:46:07.544Z,99.90
2022-09-25T04:48:35.754Z,99.90
2022-09-25T04:51:03.351Z,99.90
2022-09-25T04:53:31.867Z,99.90
2022-09-25T04:56:12.282Z,99.90
2022-09-25T04:58:45.579Z,99.90
2022-09-25T05:01:12.614Z,99.90
2022-09-25T05:03:39.392Z,99.90
2022-09-25T05:06:06.491Z,99.90
2022-09-25T05:08:33.235Z,99.90
2022-09-25T05:10:59.964Z,99.90
2022-09-25T05:13:28.140Z,99.90
2022-09-25T05:15:55.355Z,99.90
2022-09-25T05:18:24.147Z,99.90
2022-09-25T05:20:52.342Z,99.90
2022-09-25T05:23:19.200Z,99.90
2022-09-25T05:25:58.236Z,99.90
2022-09-25T05:28:25.104Z,99.90
2022-09-25T05:30:52.016Z,99.90
2022-09-25T05:33:19.158Z,99.90
2022-09-25T05:35:46.527Z,99.90
2022-09-25T05:38:13.282Z,99.90
2022-09-25T05:40:40.137Z,99.90
2022-09-25T05:43:07.289Z,99.90
2022-09-25T05:45:37.166Z,99.90
2022-09-25T05:48:06.523Z,99.90
2022-09-25T05:50:34.155Z,99.90
2022-09-25T05:53:03.419Z,99.90
2022-09-25T05:55:30.965Z,99.90
2022-09-25T05:58:02.786Z,99.90
2022-09-25T06:00:32.955Z,99.90
2022-09-25T06:03:02.929Z,99.90
2022-09-25T06:05:30.188Z,99.90
2022-09-25T06:07:56.996Z,99.90
2022-09-25T06:10:26.089Z,99.90
2022-09-25T06:12:58.825Z,99.90
2022-09-25T06:15:27.979Z,99.90
2022-09-25T06:17:57.894Z,99.90
2022-09-25T06:20:25.212Z,99.90
2022-09-25T06:22:56.069Z,99.90
2022-09-25T06:25:26.613Z,99.90
2022-09-25T06:27:54.735Z,99.90
2022-09-25T06:30:23.394Z,99.90
2022-09-25T06:33:00.039Z,99.90
2022-09-25T06:35:28.710Z,99.90
2022-09-25T06:38:00.064Z,99.90
2022-09-25T06:40:28.332Z,99.90
2022-09-25T06:42:56.886Z,99.90
2022-09-25T06:45:24.431Z,99.90
2022-09-25T06:47:51.616Z,99.90
2022-09-25T06:50:18.331Z,99.90
2022-09-25T06:52:45.112Z,99.90
2022-09-25T06:55:11.930Z,99.90
2022-09-25T06:57:38.603Z,99.90
2022-09-25T07:00:05.975Z,99.90
2022-09-25T07:02:51.476Z,99.80
2022-09-25T07:05:19.004Z,98.20
2022-09-25T07:07:46.488Z,96.70
2022-09-25T07:10:13.273Z,94.90
2022-09-25T07:12:42.286Z,94.30
2022-09-25T07:15:09.389Z,94.10
2022-09-25T07:17:36.372Z,94.70
2022-09-25T07:20:03.434Z,92.30
2022-09-25T07:22:30.194Z,83.90
2022-09-25T07:24:56.878Z,66.50
2022-09-25T07:27:23.564Z,50.60
2022-09-25T07:29:52.452Z,47.10
2022-09-25T07:32:20.665Z,47.70
2022-09-25T07:34:50.147Z,51.00
2022-09-25T07:37:17.930Z,38.10
2022-09-25T07:39:45.000Z,30.20
2022-09-25T07:42:11.871Z,35.40
2022-09-25T07:44:41.622Z,25.70
2022-09-25T07:47:15.186Z,32.40
2022-09-25T07:49:41.905Z,32.90
2022-09-25T07:52:08.636Z,29.00
2022-09-25T07:54:37.739Z,28.90
2022-09-25T07:57:04.501Z,28.70
2022-09-25T07:59:31.198Z,11.60
2022-09-25T08:01:58.266Z,15.70
2022-09-25T08:04:25.105Z,1.00
2022-09-25T08:06:51.800Z,1.00
2022-09-25T08:09:18.526Z,1.00
2022-09-25T08:11:45.231Z,1.00
2022-09-25T08:14:14.424Z,1.00
2022-09-25T08:16:42.686Z,1.00
2022-09-25T08:19:10.881Z,1.00
2022-09-25T08:21:37.673Z,1.00
2022-09-25T08:24:04.785Z,1.00
2022-09-25T08:26:31.733Z,1.00
2022-09-25T08:29:00.163Z,1.00
2022-09-25T08:31:27.659Z,1.00
2022-09-25T08:33:54.492Z,1.00
2022-09-25T08:36:22.293Z,99.90
2022-09-25T08:38:49.453Z,1.00
2022-09-25T08:41:26.263Z,1.00
2022-09-25T08:44:00.805Z,1.00
2022-09-25T08:47:19.999Z,1.00
2022-09-25T08:50:02.981Z,1.00
2022-09-25T08:52:31.344Z,47.70
2022-09-25T08:54:58.173Z,99.90
2022-09-25T08:57:40.886Z,1.00
2022-09-25T09:00:20.252Z,1.00
2022-09-25T09:02:53.918Z,1.00
2022-09-25T09:05:25.025Z,99.90
2022-09-25T09:07:59.380Z,99.90
2022-09-25T09:10:29.121Z,1.00
2022-09-25T09:13:13.235Z,1.00
2022-09-25T09:15:52.143Z,1.00
2022-09-25T09:18:36.293Z,99.90
2022-09-25T09:21:33.747Z,99.90
2022-09-25T09:24:22.171Z,99.90
2022-09-25T09:27:06.447Z,99.90
2022-09-25T09:30:10.553Z,99.90
2022-09-25T09:32:48.450Z,1.00
2022-09-25T09:35:24.146Z,99.90
2022-09-25T09:38:18.463Z,99.90
2022-09-25T09:40:48.821Z,99.90
2022-09-25T09:43:31.427Z,1.00
2022-09-25T09:46:16.921Z,99.90
2022-09-25T09:49:10.517Z,1.00
2022-09-25T09:51:41.086Z,1.00
2022-09-25T09:54:21.482Z,1.00
2022-09-25T09:56:50.268Z,99.90
2022-09-25T09:59:31.480Z,1.00
2022-09-25T10:02:05.824Z,17.70
2022-09-25T10:04:39.344Z,1.00
2022-09-25T10:07:14.139Z,99.90
2022-09-25T10:09:40.814Z,1.00
2022-09-25T10:12:33.075Z,68.40
2022-09-25T10:15:05.508Z,99.90
2022-09-25T10:17:34.834Z,10.90
2022-09-25T10:20:05.531Z,1.00
2022-09-25T10:22:40.436Z,1.00
2022-09-25T10:25:07.606Z,1.00
2022-09-25T10:27:36.395Z,1.00
2022-09-25T10:30:12.231Z,1.00
2022-09-25T10:33:01.222Z,1.00
2022-09-25T10:35:43.221Z,99.90
2022-09-25T10:38:34.814Z,1.00
2022-09-25T10:41:22.722Z,1.00
2022-09-25T10:43:56.714Z,1.00
2022-09-25T10:46:49.590Z,1.00
2022-09-25T10:49:37.560Z,1.00
2022-09-25T10:52:09.700Z,1.00
2022-09-25T10:54:43.586Z,1.00
2022-09-25T10:57:35.870Z,1.00
2022-09-25T11:00:19.920Z,99.90
2022-09-25T11:02:47.502Z,1.00
2022-09-25T11:05:21.032Z,1.00
2022-09-25T11:07:55.035Z,1.00
2022-09-25T11:10:24.130Z,99.90
2022-09-25T11:12:52.211Z,99.90
2022-09-25T11:15:23.253Z,99.90
2022-09-25T11:17:54.113Z,99.90
2022-09-25T11:20:29.749Z,99.90
2022-09-25T11:23:27.746Z,99.90
2022-09-25T11:26:27.159Z,99.90
2022-09-25T11:29:07.576Z,99.90
2022-09-25T11:31:49.803Z,99.90
2022-09-25T11:34:43.207Z,99.90
2022-09-25T11:37:27.010Z,99.90
2022-09-25T11:40:38.245Z,99.90
2022-09-25T11:43:07.942Z,99.90
2022-09-25T11:45:55.626Z,99.90
2022-09-25T11:49:11.983Z,1.00
2022-09-25T11:51:39.279Z,99.90
2022-09-25T11:54:37.450Z,99.90
2022-09-25T11:57:16.837Z,12.70
2022-09-25T12:00:04.875Z,1.00
2022-09-25T12:02:56.942Z,1.00
2022-09-25T12:05:41.373Z,1.00
2022-09-25T12:08:26.892Z,1.00
2022-09-25T12:11:02.681Z,1.00
2022-09-25T12:13:32.857Z,1.00
2022-09-25T12:16:13.485Z,1.00
2022-09-25T12:19:10.815Z,1.00
2022-09-25T12:21:52.522Z,1.00
2022-09-25T12:24:53.443Z,1.00
2022-09-25T12:27:32.779Z,1.00
2022-09-25T12:30:17.659Z,1.00
2022-09-25T12:33:04.091Z,1.00
2022-09-25T12:36:08.197Z,1.00
2022-09-25T12:38:55.266Z,1.00
2022-09-25T12:41:35.760Z,1.00
2022-09-25T12:44:17.442Z,1.00
2022-09-25T12:46:51.724Z,1.00
2022-09-25T12:49:31.715Z,1.00
2022-09-25T12:52:22.786Z,1.00
2022-09-25T12:55:05.121Z,1.00
2022-09-25T12:57:45.788Z,99.90
2022-09-25T13:00:25.719Z,1.00
2022-09-25T13:03:32.317Z,1.00
2022-09-25T13:06:08.347Z,1.00
2022-09-25T13:08:50.219Z,99.90
2022-09-25T13:11:40.868Z,1.00
2022-09-25T13:14:40.018Z,1.00
2022-09-25T13:17:11.581Z,99.90
2022-09-25T13:19:38.374Z,99.90
2022-09-25T13:22:10.258Z,99.90
2022-09-25T13:24:46.030Z,1.00
2022-09-25T13:27:22.501Z,1.00
2022-09-25T13:29:56.534Z,1.00
2022-09-25T13:32:29.006Z,1.00
2022-09-25T13:34:58.516Z,1.00
2022-09-25T13:37:36.616Z,1.00
2022-09-25T13:40:38.838Z,1.00
2022-09-25T13:43:34.847Z,99.90
2022-09-25T13:46:21.473Z,99.90
2022-09-25T13:48:48.885Z,99.90
2022-09-25T13:51:21.094Z,99.90
2022-09-25T13:54:00.241Z,99.90
2022-09-25T13:56:42.342Z,99.90
2022-09-25T13:59:17.859Z,99.90
2022-09-25T14:01:57.486Z,99.90
2022-09-25T14:04:28.112Z,99.90
2022-09-25T14:07:04.590Z,99.90
2022-09-25T14:09:32.936Z,99.90
2022-09-25T14:12:07.609Z,99.90
2022-09-25T14:14:52.791Z,99.90
2022-09-25T14:17:21.995Z,99.90
2022-09-25T14:19:52.161Z,99.90
2022-09-25T14:22:29.326Z,99.90
2022-09-25T14:24:56.125Z,99.90
2022-09-25T14:27:26.883Z,99.90
2022-09-25T14:30:20.906Z,99.90
2022-09-25T14:33:05.859Z,99.90
2022-09-25T14:35:46.708Z,99.90
2022-09-25T14:38:36.935Z,99.90
2022-09-25T14:41:23.510Z,99.90
2022-09-25T14:44:17.770Z,99.90
2022-09-25T14:46:49.357Z,99.90
2022-09-25T14:49:24.899Z,99.90
2022-09-25T14:51:55.545Z,99.90
2022-09-25T14:54:25.839Z,99.90
2022-09-25T14:56:56.190Z,99.90
2022-09-25T14:59:42.346Z,99.90
2022-09-25T15:02:22.874Z,99.90
2022-09-25T15:04:51.224Z,99.90
2022-09-25T15:07:26.605Z,99.90
2022-09-25T15:09:56.011Z,99.90
2022-09-25T15:12:36.235Z,99.90
2022-09-25T15:15:11.625Z,99.90
2022-09-25T15:17:48.969Z,99.90
2022-09-25T15:20:20.876Z,99.90
2022-09-25T15:22:56.947Z,1.00
2022-09-25T15:25:29.874Z,1.00
2022-09-25T15:27:56.889Z,1.00
2022-09-25T15:30:26.957Z,1.00
2022-09-25T15:33:00.524Z,1.00
2022-09-25T15:35:28.993Z,1.00
2022-09-25T15:38:32.013Z,1.00
2022-09-25T15:40:59.345Z,1.00
2022-09-25T15:43:26.694Z,1.00
2022-09-25T15:45:58.368Z,1.00
2022-09-25T15:48:31.243Z,93.70
2022-09-25T15:51:13.989Z,99.90
2022-09-25T15:53:44.312Z,99.90
2022-09-25T15:56:16.750Z,1.00
2022-09-25T15:58:48.113Z,1.80
2022-09-25T16:01:37.478Z,99.90
2022-09-25T16:04:26.646Z,1.00
2022-09-25T16:06:54.498Z,99.90
2022-09-25T16:09:30.753Z,99.90
2022-09-25T16:12:22.681Z,99.90
2022-09-25T16:14:50.496Z,1.00
2022-09-25T16:17:38.853Z,1.00
2022-09-25T16:20:36.230Z,5.60
2022-09-25T16:23:06.097Z,1.00
2022-09-25T16:25:35.981Z,1.00
2022-09-25T16:28:10.921Z,1.00
2022-09-25T16:30:38.113Z,99.90
2022-09-25T16:33:15.040Z,99.90
2022-09-25T16:36:09.364Z,35.40
2022-09-25T16:38:38.370Z,99.90
2022-09-25T16:41:07.569Z,99.90
2022-09-25T16:43:39.349Z,99.90
2022-09-25T16:46:15.756Z,99.90
2022-09-25T16:48:43.854Z,1.00
2022-09-25T16:51:26.997Z,1.00
2022-09-25T16:53:58.815Z,1.00
2022-09-25T16:56:32.561Z,99.90
2022-09-25T16:58:59.776Z,1.00
2022-09-25T17:01:28.138Z,4.10
2022-09-25T17:03:59.813Z,99.90
2022-09-25T17:06:29.244Z,99.90
2022-09-25T17:08:58.584Z,1.00
2022-09-25T17:11:25.721Z,1.00
2022-09-25T17:13:52.530Z,99.90
2022-09-25T17:16:19.346Z,99.90
2022-09-25T17:18:46.141Z,99.90
2022-09-25T17:21:15.345Z,99.90
2022-09-25T17:23:43.880Z,1.00
2022-09-25T17:26:17.818Z,1.00
2022-09-25T17:28:44.639Z,1.00
2022-09-25T17:31:18.971Z,1.00
2022-09-25T17:33:52.351Z,1.00
2022-09-25T17:36:19.407Z,1.00
2022-09-25T17:38:46.128Z,43.80
2022-09-25T17:41:19.668Z,84.10
2022-09-25T17:43:46.959Z,99.90
2022-09-25T17:46:20.339Z,99.90
2022-09-25T17:48:53.252Z,99.90
2022-09-25T17:51:26.336Z,99.90
2022-09-25T17:53:53.847Z,99.90
2022-09-25T17:56:20.910Z,1.00
2022-09-25T17:58:47.712Z,1.00
2022-09-25T18:01:22.293Z,1.00
2022-09-25T18:03:54.067Z,1.00
2022-09-25T18:06:21.559Z,1.00
2022-09-25T18:08:48.931Z,1.00
2022-09-25T18:11:16.088Z,1.00
2022-09-25T18:13:43.751Z,1.00
2022-09-25T18:16:20.839Z,1.00
2022-09-25T18:19:06.764Z,1.00
2022-09-25T18:21:52.030Z,1.00
2022-09-25T18:24:18.846Z,1.00
2022-09-25T18:26:45.942Z,1.00
2022-09-25T18:29:17.358Z,1.00
2022-09-25T18:31:45.096Z,1.00
2022-09-25T18:34:11.946Z,1.00
2022-09-25T18:36:39.041Z,1.00
2022-09-25T18:39:05.936Z,1.00
2022-09-25T18:41:37.005Z,1.00
2022-09-25T18:44:07.380Z,1.00
2022-09-25T18:46:35.856Z,1.00
2022-09-25T18:49:03.094Z,1.00
2022-09-25T18:51:29.802Z,1.00
2022-09-25T18:53:56.547Z,1.00
2022-09-25T18:56:23.496Z,1.00
2022-09-25T18:58:51.754Z,1.00
2022-09-25T19:01:18.571Z,1.00
2022-09-25T19:03:52.176Z,1.00
2022-09-25T19:06:19.706Z,1.00
2022-09-25T19:08:53.011Z,1.00
2022-09-25T19:11:20.323Z,1.00
2022-09-25T19:13:48.131Z,1.00
2022-09-25T19:16:14.957Z,1.00
2022-09-25T19:18:42.904Z,1.00
2022-09-25T19:21:16.274Z,1.00
2022-09-25T19:23:43.915Z,1.00
2022-09-25T19:26:15.154Z,1.00
2022-09-25T19:28:42.532Z,1.00
2022-09-25T19:31:18.237Z,1.00
2022-09-25T19:33:45.457Z,1.00
2022-09-25T19:36:16.820Z,1.00
2022-09-25T19:38:43.696Z,1.00
2022-09-25T19:41:26.586Z,1.00
2022-09-25T19:43:56.553Z,1.00
2022-09-25T19:46:23.944Z,1.00
2022-09-25T19:48:50.930Z,1.00
2022-09-25T19:51:21.186Z,1.00
2022-09-25T19:53:48.420Z,1.00
2022-09-25T19:56:16.381Z,1.00
2022-09-25T19:58:43.527Z,1.00
2022-09-25T20:01:13.062Z,1.00
2022-09-25T20:03:40.366Z,1.00
2022-09-25T20:06:08.341Z,1.00
2022-09-25T20:08:35.920Z,1.00
2022-09-25T20:11:18.503Z,1.00
2022-09-25T20:13:46.290Z,1.00
2022-09-25T20:16:15.755Z,1.00
2022-09-25T20:18:44.001Z,1.00
2022-09-25T20:21:11.831Z,1.00
2022-09-25T20:23:39.432Z,1.00
2022-09-25T20:26:08.370Z,1.00
2022-09-25T20:28:37.174Z,1.00
2022-09-25T20:31:09.236Z,1.00
2022-09-25T20:33:36.998Z,1.00
2022-09-25T20:36:05.739Z,1.00
2022-09-25T20:38:33.402Z,1.00
2022-09-25T20:41:20.939Z,1.00
2022-09-25T20:43:53.264Z,1.00
2022-09-25T20:46:21.451Z,1.00
2022-09-25T20:48:51.494Z,1.00
2022-09-25T20:51:23.975Z,1.00
2022-09-25T20:53:52.352Z,1.00
2022-09-25T20:56:20.387Z,1.00
2022-09-25T20:58:52.914Z,1.00
2022-09-25T21:01:23.478Z,1.00
2022-09-25T21:03:51.459Z,1.00
2022-09-25T21:06:22.208Z,1.00
2022-09-25T21:08:57.675Z,1.00
2022-09-25T21:11:26.927Z,1.00
2022-09-25T21:13:58.157Z,1.00
2022-09-25T21:16:26.950Z,1.00
2022-09-25T21:19:04.107Z,1.00
2022-09-25T21:21:32.238Z,1.00
2022-09-25T21:23:59.139Z,1.00
2022-09-25T21:26:28.511Z,1.00
2022-09-25T21:28:57.545Z,1.00
2022-09-25T21:31:27.623Z,1.00
2022-09-25T21:33:57.033Z,1.00
2022-09-25T21:36:25.425Z,1.00
2022-09-25T21:38:52.796Z,1.00
2022-09-25T21:41:25.636Z,1.00
2022-09-25T21:43:57.472Z,1.00
2022-09-25T21:46:25.239Z,1.00
2022-09-25T21:48:59.804Z,1.00
2022-09-25T21:51:29.428Z,1.00
2022-09-25T21:53:56.636Z,1.00
2022-09-25T21:56:25.438Z,1.00
2022-09-25T21:58:54.356Z,1.00
2022-09-25T22:01:27.584Z,1.00
2022-09-25T22:03:57.796Z,1.00
2022-09-25T22:06:27.161Z,1.00
2022-09-25T22:08:57.307Z,1.00
2022-09-25T22:11:24.929Z,1.00
2022-09-25T22:13:52.612Z,1.00
2022-09-25T22:16:22.712Z,1.00
2022-09-25T22:18:55.723Z,1.00
2022-09-25T22:21:26.110Z,1.00
2022-09-25T22:23:52.829Z,1.00
2022-09-25T22:26:20.942Z,1.00
2022-09-25T22:28:48.097Z,1.00
2022-09-25T22:31:28.441Z,1.00
2022-09-25T22:34:04.969Z,1.00
2022-09-25T22:36:32.215Z,1.00
2022-09-25T22:38:58.889Z,1.00
2022-09-25T22:41:25.643Z,1.00
2022-09-25T22:43:54.802Z,1.00
2022-09-25T22:46:23.636Z,1.00
2022-09-25T22:48:51.167Z,1.00
2022-09-25T22:51:21.016Z,1.00
2022-09-25T22:53:48.627Z,1.00
2022-09-25T22:56:18.355Z,1.00
2022-09-25T22:58:47.753Z,1.00
2022-09-25T23:01:18.189Z,1.00
2022-09-25T23:03:45.027Z,1.00
2022-09-25T23:06:11.767Z,1.00
2022-09-25T23:08:38.585Z,1.00
2022-09-25T23:11:08.076Z,1.00
2022-09-25T23:13:36.516Z,1.00
2022-09-25T23:16:08.225Z,1.00
2022-09-25T23:18:36.505Z,1.00
2022-09-25T23:21:04.092Z,1.00
2022-09-25T23:23:31.285Z,1.00
2022-09-25T23:26:06.436Z,1.00
2022-09-25T23:28:36.981Z,1.00
2022-09-25T23:31:12.735Z,1.00
2022-09-25T23:33:40.591Z,1.00
2022-09-25T23:36:10.294Z,1.00
2022-09-25T23:38:37.659Z,1.00
2022-09-25T23:41:15.964Z,1.00
2022-09-25T23:43:43.293Z,1.00
2022-09-25T23:46:10.646Z,1.00
2022-09-25T23:48:37.729Z,1.00
2022-09-25T23:51:05.251Z,1.00
2022-09-25T23:53:32.463Z,1.00
2022-09-25T23:55:59.855Z,1.00
2022-09-25T23:58:26.522Z,1.00
